createdAt,value
2018-05-13T00:00:05.817Z,0.00
2018-05-13T00:01:05.809Z,0.00
2018-05-13T00:02:05.804Z,0.00
2018-05-13T00:03:05.799Z,0.00
2018-05-13T00:04:05.795Z,0.00
2018-05-13T00:05:05.789Z,0.00
2018-05-13T00:06:05.787Z,0.00
2018-05-13T00:07:05.781Z,0.00
2018-05-13T00:08:05.775Z,0.00
2018-05-13T00:09:05.770Z,0.00
2018-05-13T00:10:05.765Z,0.00
2018-05-13T00:11:05.761Z,0.00
2018-05-13T00:12:05.756Z,0.00
2018-05-13T00:13:05.752Z,0.00
2018-05-13T00:14:05.748Z,0.00
2018-05-13T00:15:05.741Z,0.00
2018-05-13T00:16:05.737Z,0.00
2018-05-13T00:17:05.731Z,0.00
2018-05-13T00:18:05.727Z,0.00
2018-05-13T00:19:05.722Z,0.00
2018-05-13T00:20:05.720Z,0.00
2018-05-13T00:21:05.715Z,0.00
2018-05-13T00:22:05.706Z,0.00
2018-05-13T00:23:05.703Z,0.00
2018-05-13T00:24:05.697Z,0.00
2018-05-13T00:25:05.691Z,0.00
2018-05-13T00:26:05.686Z,0.00
2018-05-13T00:27:05.682Z,0.00
2018-05-13T00:28:05.681Z,0.00
2018-05-13T00:29:05.677Z,0.00
2018-05-13T00:30:05.666Z,0.00
2018-05-13T00:31:05.662Z,0.00
2018-05-13T00:32:05.662Z,0.00
2018-05-13T00:33:05.651Z,0.00
2018-05-13T00:34:05.646Z,0.00
2018-05-13T00:35:05.641Z,0.00
2018-05-13T00:36:05.636Z,0.00
2018-05-13T00:37:05.632Z,0.00
2018-05-13T00:38:05.626Z,0.00
2018-05-13T00:39:05.621Z,0.00
2018-05-13T00:40:05.616Z,0.00
2018-05-13T00:41:05.613Z,0.00
2018-05-13T00:42:05.609Z,0.00
2018-05-13T00:43:05.601Z,0.00
2018-05-13T00:44:05.596Z,0.00
2018-05-13T00:45:05.591Z,0.00
2018-05-13T00:46:05.585Z,0.00
2018-05-13T00:47:05.581Z,0.00
2018-05-13T00:48:05.579Z,0.00
2018-05-13T00:49:05.570Z,0.00
2018-05-13T00:50:05.566Z,0.00
2018-05-13T00:51:05.561Z,0.00
2018-05-13T00:52:05.556Z,0.00
2018-05-13T00:53:05.554Z,0.00
2018-05-13T00:54:05.546Z,0.00
2018-05-13T00:55:05.540Z,0.00
2018-05-13T00:56:05.539Z,0.00
2018-05-13T00:57:05.529Z,0.00
2018-05-13T00:58:05.525Z,0.00
2018-05-13T00:59:05.520Z,0.00
2018-05-13T01:00:05.515Z,0.00
2018-05-13T01:01:05.509Z,0.00
2018-05-13T01:02:05.504Z,0.00
2018-05-13T01:03:05.501Z,0.00
2018-05-13T01:04:05.495Z,0.00
2018-05-13T01:05:05.489Z,0.00
2018-05-13T01:06:05.488Z,0.00
2018-05-13T01:07:05.479Z,0.00
2018-05-13T01:08:05.474Z,0.00
2018-05-13T01:09:05.469Z,0.00
2018-05-13T01:10:05.467Z,0.00
2018-05-13T01:11:05.460Z,0.00
2018-05-13T01:12:05.454Z,0.00
2018-05-13T01:13:05.448Z,0.00
2018-05-13T01:14:05.443Z,0.00
2018-05-13T01:15:05.438Z,0.00
2018-05-13T01:16:05.434Z,0.00
2018-05-13T01:17:05.427Z,0.00
2018-05-13T01:18:05.428Z,0.00
2018-05-13T01:19:05.418Z,0.00
2018-05-13T01:20:05.413Z,0.00
2018-05-13T01:21:05.407Z,0.00
2018-05-13T01:22:05.402Z,0.00
2018-05-13T01:23:05.397Z,0.00
2018-05-13T01:24:05.395Z,0.00
2018-05-13T01:25:05.386Z,0.00
2018-05-13T01:26:05.382Z,0.00
2018-05-13T01:27:05.377Z,0.00
2018-05-13T01:28:05.372Z,0.00
2018-05-13T01:29:05.367Z,0.00
2018-05-13T01:30:05.360Z,0.00
2018-05-13T01:31:05.356Z,0.00
2018-05-13T01:32:05.353Z,0.00
2018-05-13T01:33:05.347Z,0.00
2018-05-13T01:34:05.342Z,0.00
2018-05-13T01:35:05.335Z,0.00
2018-05-13T01:36:05.330Z,0.00
2018-05-13T01:37:05.325Z,0.00
2018-05-13T01:38:05.320Z,0.00
2018-05-13T01:39:05.315Z,0.00
2018-05-13T01:40:05.310Z,0.00
2018-05-13T01:41:05.304Z,0.00
2018-05-13T01:42:05.298Z,0.00
2018-05-13T01:43:05.362Z,0.00
2018-05-13T01:44:05.291Z,0.00
2018-05-13T01:45:05.282Z,0.00
2018-05-13T01:46:05.285Z,0.00
2018-05-13T01:47:05.275Z,0.00
2018-05-13T01:48:05.266Z,0.00
2018-05-13T01:49:05.260Z,0.00
2018-05-13T01:50:05.255Z,0.00
2018-05-13T01:51:05.250Z,0.00
2018-05-13T01:52:05.244Z,0.00
2018-05-13T01:53:05.241Z,0.00
2018-05-13T01:54:05.236Z,0.00
2018-05-13T01:55:05.228Z,0.00
2018-05-13T01:56:05.222Z,0.00
2018-05-13T01:57:05.217Z,0.00
2018-05-13T01:58:05.211Z,0.00
2018-05-13T01:59:05.206Z,0.00
2018-05-13T02:00:05.201Z,0.00
2018-05-13T02:01:05.195Z,0.00
2018-05-13T02:02:05.189Z,0.00
2018-05-13T02:03:05.184Z,0.00
2018-05-13T02:04:05.179Z,0.00
2018-05-13T02:05:05.173Z,0.00
2018-05-13T02:06:05.170Z,0.00
2018-05-13T02:07:05.162Z,0.00
2018-05-13T02:08:05.156Z,0.00
2018-05-13T02:09:05.150Z,0.00
2018-05-13T02:10:05.145Z,0.00
2018-05-13T02:11:05.140Z,0.00
2018-05-13T02:12:05.135Z,0.00
2018-05-13T02:13:05.128Z,0.00
2018-05-13T02:14:05.124Z,0.00
2018-05-13T02:15:05.118Z,0.00
2018-05-13T02:16:05.114Z,0.00
2018-05-13T02:17:05.106Z,0.00
2018-05-13T02:18:05.101Z,0.00
2018-05-13T02:19:05.096Z,0.00
2018-05-13T02:20:05.091Z,0.00
2018-05-13T02:21:05.083Z,0.00
2018-05-13T02:22:05.079Z,0.00
2018-05-13T02:23:05.074Z,0.00
2018-05-13T02:24:05.068Z,0.00
2018-05-13T02:25:05.064Z,0.00
2018-05-13T02:26:05.062Z,0.00
2018-05-13T02:27:05.053Z,0.00
2018-05-13T02:28:05.048Z,0.00
2018-05-13T02:29:05.042Z,0.00
2018-05-13T02:30:05.044Z,0.00
2018-05-13T02:31:05.037Z,0.00
2018-05-13T02:32:05.028Z,0.00
2018-05-13T02:33:05.022Z,0.00
2018-05-13T02:34:05.018Z,0.00
2018-05-13T02:35:05.012Z,0.00
2018-05-13T02:36:05.007Z,0.00
2018-05-13T02:37:05.001Z,0.00
2018-05-13T02:38:04.997Z,0.00
2018-05-13T02:39:04.992Z,0.00
2018-05-13T02:40:05.001Z,0.00
2018-05-13T02:41:04.979Z,0.00
2018-05-13T02:42:04.978Z,0.00
2018-05-13T02:43:04.972Z,0.00
2018-05-13T02:44:04.963Z,0.00
2018-05-13T02:45:04.956Z,0.00
2018-05-13T02:46:04.954Z,0.00
2018-05-13T02:47:04.944Z,0.00
2018-05-13T02:48:04.938Z,0.00
2018-05-13T02:49:04.937Z,0.00
2018-05-13T02:50:04.925Z,0.00
2018-05-13T02:51:04.920Z,0.00
2018-05-13T02:52:04.913Z,0.00
2018-05-13T02:53:04.908Z,0.00
2018-05-13T02:54:04.900Z,0.00
2018-05-13T02:55:04.894Z,0.00
2018-05-13T02:56:04.889Z,0.00
2018-05-13T02:57:04.881Z,0.00
2018-05-13T02:58:04.876Z,0.00
2018-05-13T02:59:04.870Z,0.00
2018-05-13T03:00:04.864Z,0.00
2018-05-13T03:01:04.858Z,0.00
2018-05-13T03:02:04.851Z,0.00
2018-05-13T03:03:04.849Z,0.00
2018-05-13T03:04:04.838Z,0.00
2018-05-13T03:05:04.831Z,0.00
2018-05-13T03:06:04.825Z,0.00
2018-05-13T03:07:04.819Z,0.00
2018-05-13T03:08:04.813Z,0.00
2018-05-13T03:09:04.806Z,0.00
2018-05-13T03:10:04.799Z,0.00
2018-05-13T03:11:04.793Z,0.00
2018-05-13T03:12:04.786Z,0.00
2018-05-13T03:13:04.780Z,0.00
2018-05-13T03:14:04.773Z,0.00
2018-05-13T03:15:04.768Z,0.00
2018-05-13T03:16:04.761Z,0.00
2018-05-13T03:17:04.753Z,0.00
2018-05-13T03:18:04.747Z,0.00
2018-05-13T03:19:04.752Z,0.00
2018-05-13T03:20:04.735Z,0.00
2018-05-13T03:21:04.728Z,0.00
2018-05-13T03:22:04.722Z,0.00
2018-05-13T03:23:04.716Z,0.00
2018-05-13T03:24:04.709Z,0.00
2018-05-13T03:25:04.702Z,0.00
2018-05-13T03:26:04.701Z,0.00
2018-05-13T03:27:04.694Z,0.00
2018-05-13T03:28:04.684Z,4.00
2018-05-13T03:29:04.683Z,4.00
2018-05-13T03:30:04.672Z,4.00
2018-05-13T03:31:04.665Z,0.00
2018-05-13T03:32:04.659Z,4.00
2018-05-13T03:33:04.652Z,4.00
2018-05-13T03:34:04.646Z,4.00
2018-05-13T03:35:04.640Z,4.00
2018-05-13T03:36:04.636Z,4.00
2018-05-13T03:37:04.627Z,8.00
2018-05-13T03:38:04.621Z,8.00
2018-05-13T03:39:04.614Z,8.00
2018-05-13T03:40:04.609Z,12.00
2018-05-13T03:41:04.601Z,12.00
2018-05-13T03:42:04.595Z,16.00
2018-05-13T03:43:04.590Z,16.00
2018-05-13T03:44:04.588Z,16.00
2018-05-13T03:45:04.576Z,20.00
2018-05-13T03:46:04.570Z,20.00
2018-05-13T03:47:04.564Z,20.00
2018-05-13T03:48:04.558Z,24.00
2018-05-13T03:49:04.550Z,24.00
2018-05-13T03:50:04.544Z,28.00
2018-05-13T03:51:04.539Z,28.00
2018-05-13T03:52:04.532Z,32.00
2018-05-13T03:53:04.525Z,36.00
2018-05-13T03:54:04.520Z,44.00
2018-05-13T03:55:04.517Z,44.00
2018-05-13T03:56:04.507Z,48.00
2018-05-13T03:57:04.511Z,52.00
2018-05-13T03:58:04.493Z,56.00
2018-05-13T03:59:04.488Z,64.00
2018-05-13T04:00:04.481Z,64.00
2018-05-13T04:01:04.474Z,68.00
2018-05-13T04:02:04.473Z,72.00
2018-05-13T04:03:04.493Z,80.00
2018-05-13T04:04:04.456Z,84.00
2018-05-13T04:05:04.449Z,88.00
2018-05-13T04:06:04.443Z,96.00
2018-05-13T04:07:04.437Z,104.00
2018-05-13T04:08:04.431Z,108.00
2018-05-13T04:09:04.424Z,120.00
2018-05-13T04:10:04.419Z,132.00
2018-05-13T04:11:04.412Z,144.00
2018-05-13T04:12:04.405Z,152.00
2018-05-13T04:13:04.400Z,168.00
2018-05-13T04:14:04.392Z,180.00
2018-05-13T04:15:04.387Z,196.00
2018-05-13T04:16:04.382Z,208.00
2018-05-13T04:17:04.374Z,224.00
2018-05-13T04:18:04.368Z,232.00
2018-05-13T04:19:04.362Z,240.00
2018-05-13T04:20:04.356Z,244.00
2018-05-13T04:21:04.349Z,244.00
2018-05-13T04:22:04.348Z,248.00
2018-05-13T04:23:04.337Z,260.00
2018-05-13T04:24:04.331Z,268.00
2018-05-13T04:25:04.327Z,272.00
2018-05-13T04:26:04.317Z,280.00
2018-05-13T04:27:04.313Z,288.00
2018-05-13T04:28:04.307Z,300.00
2018-05-13T04:29:04.301Z,316.00
2018-05-13T04:30:04.293Z,336.00
2018-05-13T04:31:04.288Z,356.00
2018-05-13T04:32:04.281Z,380.00
2018-05-13T04:33:04.274Z,412.00
2018-05-13T04:34:04.268Z,440.00
2018-05-13T04:35:04.262Z,456.00
2018-05-13T04:36:04.255Z,464.00
2018-05-13T04:37:04.251Z,472.00
2018-05-13T04:38:04.242Z,476.00
2018-05-13T04:39:04.236Z,472.00
2018-05-13T04:40:04.229Z,464.00
2018-05-13T04:41:04.222Z,448.00
2018-05-13T04:42:04.219Z,428.00
2018-05-13T04:43:04.209Z,416.00
2018-05-13T04:44:04.204Z,416.00
2018-05-13T04:45:04.195Z,408.00
2018-05-13T04:46:04.188Z,408.00
2018-05-13T04:47:04.182Z,412.00
2018-05-13T04:48:04.181Z,420.00
2018-05-13T04:49:04.168Z,432.00
2018-05-13T04:50:04.162Z,444.00
2018-05-13T04:51:04.155Z,464.00
2018-05-13T04:52:04.149Z,476.00
2018-05-13T04:53:04.141Z,484.00
2018-05-13T04:54:04.134Z,484.00
2018-05-13T04:55:04.128Z,480.00
2018-05-13T04:56:04.121Z,480.00
2018-05-13T04:57:04.114Z,492.00
2018-05-13T04:58:04.107Z,504.00
2018-05-13T04:59:04.100Z,528.00
2018-05-13T05:00:04.094Z,544.00
2018-05-13T05:01:04.086Z,564.00
2018-05-13T05:02:04.079Z,576.00
2018-05-13T05:03:04.072Z,596.00
2018-05-13T05:04:04.066Z,600.00
2018-05-13T05:05:04.058Z,612.00
2018-05-13T05:06:04.051Z,632.00
2018-05-13T05:07:04.044Z,656.00
2018-05-13T05:08:04.037Z,696.00
2018-05-13T05:09:04.069Z,720.00
2018-05-13T05:10:04.024Z,728.00
2018-05-13T05:11:04.015Z,712.00
2018-05-13T05:12:04.008Z,700.00
2018-05-13T05:13:04.000Z,696.00
2018-05-13T05:14:03.992Z,664.00
2018-05-13T05:15:03.987Z,648.00
2018-05-13T05:16:03.978Z,660.00
2018-05-13T05:17:03.971Z,668.00
2018-05-13T05:18:03.963Z,676.00
2018-05-13T05:19:03.956Z,688.00
2018-05-13T05:20:03.949Z,704.00
2018-05-13T05:21:03.941Z,724.00
2018-05-13T05:22:03.933Z,764.00
2018-05-13T05:23:03.926Z,776.00
2018-05-13T05:24:03.918Z,808.00
2018-05-13T05:25:03.910Z,860.00
2018-05-13T05:26:03.902Z,968.00
2018-05-13T05:27:03.895Z,1120.00
2018-05-13T05:28:03.887Z,1284.00
2018-05-13T05:29:03.879Z,1440.00
2018-05-13T05:30:03.872Z,1552.00
2018-05-13T05:31:03.864Z,1620.00
2018-05-13T05:32:03.857Z,1632.00
2018-05-13T05:33:03.848Z,1556.00
2018-05-13T05:34:03.841Z,1320.00
2018-05-13T05:35:03.833Z,1144.00
2018-05-13T05:36:03.827Z,1056.00
2018-05-13T05:37:03.817Z,1060.00
2018-05-13T05:38:03.810Z,1100.00
2018-05-13T05:39:03.803Z,1128.00
2018-05-13T05:40:03.795Z,1232.00
2018-05-13T05:41:03.787Z,1404.00
2018-05-13T05:42:03.780Z,1604.00
2018-05-13T05:43:03.772Z,1676.00
2018-05-13T05:44:03.765Z,1788.00
2018-05-13T05:45:03.756Z,1804.00
2018-05-13T05:46:03.750Z,1692.00
2018-05-13T05:47:03.742Z,1600.00
2018-05-13T05:48:03.734Z,1580.00
2018-05-13T05:49:03.726Z,1644.00
2018-05-13T05:50:03.726Z,1728.00
2018-05-13T05:51:03.712Z,1748.00
2018-05-13T05:52:03.705Z,1928.00
2018-05-13T05:53:03.696Z,2280.00
2018-05-13T05:54:03.691Z,2352.00
2018-05-13T05:55:03.682Z,2756.00
2018-05-13T05:56:03.676Z,2908.00
2018-05-13T05:57:03.666Z,3144.00
2018-05-13T05:58:03.659Z,3324.00
2018-05-13T05:59:03.652Z,3560.00
2018-05-13T06:00:03.648Z,3548.00
2018-05-13T06:01:03.637Z,3484.00
2018-05-13T06:02:03.629Z,3372.00
2018-05-13T06:03:03.622Z,3308.00
2018-05-13T06:04:03.615Z,3100.00
2018-05-13T06:05:03.607Z,3028.00
2018-05-13T06:06:03.600Z,3052.00
2018-05-13T06:07:03.593Z,2964.00
2018-05-13T06:08:03.586Z,2964.00
2018-05-13T06:09:03.578Z,2964.00
2018-05-13T06:10:03.573Z,3024.00
2018-05-13T06:11:03.564Z,3140.00
2018-05-13T06:12:03.558Z,3176.00
2018-05-13T06:13:03.549Z,3264.00
2018-05-13T06:14:03.542Z,3392.00
2018-05-13T06:15:03.535Z,3464.00
2018-05-13T06:16:03.527Z,3512.00
2018-05-13T06:17:03.526Z,3556.00
2018-05-13T06:18:03.512Z,3656.00
2018-05-13T06:19:03.506Z,3688.00
2018-05-13T06:20:03.498Z,3792.00
2018-05-13T06:21:03.490Z,3780.00
2018-05-13T06:22:03.484Z,3736.00
2018-05-13T06:23:03.476Z,3524.00
2018-05-13T06:24:03.469Z,3580.00
2018-05-13T06:25:03.469Z,3636.00
2018-05-13T06:26:03.461Z,3628.00
2018-05-13T06:27:03.446Z,3652.00
2018-05-13T06:28:03.438Z,3564.00
2018-05-13T06:29:03.431Z,3624.00
2018-05-13T06:30:03.424Z,3748.00
2018-05-13T06:31:03.419Z,3876.00
2018-05-13T06:32:03.410Z,3916.00
2018-05-13T06:33:03.402Z,3932.00
2018-05-13T06:34:03.395Z,3792.00
2018-05-13T06:35:03.388Z,3676.00
2018-05-13T06:36:03.381Z,3472.00
2018-05-13T06:37:03.373Z,3364.00
2018-05-13T06:38:03.366Z,3328.00
2018-05-13T06:39:03.359Z,3316.00
2018-05-13T06:40:03.352Z,3212.00
2018-05-13T06:41:03.345Z,3104.00
2018-05-13T06:42:03.337Z,3036.00
2018-05-13T06:43:03.330Z,3048.00
2018-05-13T06:44:03.323Z,3036.00
2018-05-13T06:45:03.314Z,3072.00
2018-05-13T06:46:03.307Z,3000.00
2018-05-13T06:47:03.300Z,3248.00
2018-05-13T06:48:03.292Z,3404.00
2018-05-13T06:49:03.284Z,3136.00
2018-05-13T06:50:03.279Z,3704.00
2018-05-13T06:51:03.387Z,4108.00
2018-05-13T06:52:03.263Z,4260.00
2018-05-13T06:53:03.258Z,4388.00
2018-05-13T06:54:03.250Z,4952.00
2018-05-13T06:55:03.241Z,4932.00
2018-05-13T06:56:03.234Z,4852.00
2018-05-13T06:57:03.226Z,5020.00
2018-05-13T06:58:03.218Z,4836.00
2018-05-13T06:59:03.212Z,5208.00
2018-05-13T07:00:03.205Z,5276.00
2018-05-13T07:01:03.200Z,5504.00
2018-05-13T07:02:03.192Z,5744.00
2018-05-13T07:03:03.184Z,5600.00
2018-05-13T07:04:03.174Z,5636.00
2018-05-13T07:05:03.226Z,5204.00
2018-05-13T07:06:03.159Z,4716.00
2018-05-13T07:07:03.151Z,4752.00
2018-05-13T07:08:03.144Z,4840.00
2018-05-13T07:09:03.136Z,4572.00
2018-05-13T07:10:03.129Z,4572.00
2018-05-13T07:11:03.121Z,5552.00
2018-05-13T07:12:03.116Z,5604.00
2018-05-13T07:13:03.107Z,5352.00
2018-05-13T07:14:03.099Z,4316.00
2018-05-13T07:15:03.095Z,4108.00
2018-05-13T07:16:03.085Z,4368.00
2018-05-13T07:17:03.077Z,3624.00
2018-05-13T07:18:03.072Z,3524.00
2018-05-13T07:19:03.063Z,3520.00
2018-05-13T07:20:03.057Z,3708.00
2018-05-13T07:21:03.047Z,3448.00
2018-05-13T07:22:03.043Z,3084.00
2018-05-13T07:23:03.033Z,4476.00
2018-05-13T07:24:03.026Z,5208.00
2018-05-13T07:25:03.019Z,4432.00
2018-05-13T07:26:03.012Z,3632.00
2018-05-13T07:27:03.008Z,3724.00
2018-05-13T07:28:03.001Z,4048.00
2018-05-13T07:29:02.992Z,2672.00
2018-05-13T07:30:02.982Z,2056.00
2018-05-13T07:31:02.976Z,1912.00
2018-05-13T07:32:02.974Z,2104.00
2018-05-13T07:33:02.961Z,1832.00
2018-05-13T07:34:02.954Z,1976.00
2018-05-13T07:35:02.946Z,2756.00
2018-05-13T07:36:02.940Z,3404.00
2018-05-13T07:37:02.932Z,3676.00
2018-05-13T07:38:02.925Z,3604.00
2018-05-13T07:39:02.918Z,4476.00
2018-05-13T07:40:02.911Z,3912.00
2018-05-13T07:41:02.903Z,3932.00
2018-05-13T07:42:02.896Z,3552.00
2018-05-13T07:43:02.890Z,3160.00
2018-05-13T07:44:02.884Z,3332.00
2018-05-13T07:45:02.877Z,4376.00
2018-05-13T07:46:02.868Z,4636.00
2018-05-13T07:47:02.861Z,4560.00
2018-05-13T07:48:02.855Z,4684.00
2018-05-13T07:49:02.847Z,3788.00
2018-05-13T07:50:02.863Z,3956.00
2018-05-13T07:51:02.874Z,3780.00
2018-05-13T07:52:02.826Z,3060.00
2018-05-13T07:53:02.818Z,2900.00
2018-05-13T07:54:02.810Z,2676.00
2018-05-13T07:55:02.803Z,2540.00
2018-05-13T07:56:02.796Z,2192.00
2018-05-13T07:57:02.788Z,2028.00
2018-05-13T07:58:02.781Z,2316.00
2018-05-13T07:59:02.774Z,2616.00
2018-05-13T08:00:02.771Z,2464.00
2018-05-13T08:01:02.758Z,2360.00
2018-05-13T08:02:02.752Z,2640.00
2018-05-13T08:03:02.745Z,2560.00
2018-05-13T08:04:02.738Z,2660.00
2018-05-13T08:05:02.732Z,2528.00
2018-05-13T08:06:02.724Z,2464.00
2018-05-13T08:07:02.719Z,2992.00
2018-05-13T08:08:02.709Z,3540.00
2018-05-13T08:09:02.701Z,3068.00
2018-05-13T08:10:02.693Z,3496.00
2018-05-13T08:11:02.691Z,3688.00
2018-05-13T08:12:02.678Z,3752.00
2018-05-13T08:13:02.673Z,3884.00
2018-05-13T08:14:02.747Z,3736.00
2018-05-13T08:15:02.657Z,3828.00
2018-05-13T08:16:02.649Z,3976.00
2018-05-13T08:17:02.641Z,3784.00
2018-05-13T08:18:02.635Z,3600.00
2018-05-13T08:19:02.628Z,3456.00
2018-05-13T08:20:02.621Z,3272.00
2018-05-13T08:21:02.612Z,3256.00
2018-05-13T08:22:02.608Z,3516.00
2018-05-13T08:23:02.599Z,3528.00
2018-05-13T08:24:02.594Z,3136.00
2018-05-13T08:25:02.584Z,3068.00
2018-05-13T08:26:02.577Z,2824.00
2018-05-13T08:27:02.570Z,2840.00
2018-05-13T08:28:02.565Z,2768.00
2018-05-13T08:29:02.555Z,2992.00
2018-05-13T08:30:02.548Z,3032.00
2018-05-13T08:31:02.542Z,2932.00
2018-05-13T08:32:02.535Z,3184.00
2018-05-13T08:33:02.528Z,3188.00
2018-05-13T08:34:02.520Z,2816.00
2018-05-13T08:35:02.516Z,2696.00
2018-05-13T08:36:02.507Z,3048.00
2018-05-13T08:37:02.499Z,3164.00
2018-05-13T08:38:02.496Z,3272.00
2018-05-13T08:39:02.485Z,3668.00
2018-05-13T08:40:02.480Z,3784.00
2018-05-13T08:41:02.470Z,3820.00
2018-05-13T08:42:02.464Z,4188.00
2018-05-13T08:43:02.457Z,3656.00
2018-05-13T08:44:02.450Z,3556.00
2018-05-13T08:45:02.441Z,3560.00
2018-05-13T08:46:02.434Z,3712.00
2018-05-13T08:47:02.431Z,3988.00
2018-05-13T08:48:02.420Z,4440.00
2018-05-13T08:49:02.412Z,4596.00
2018-05-13T08:50:02.405Z,4816.00
2018-05-13T08:51:02.398Z,4576.00
2018-05-13T08:52:02.390Z,4252.00
2018-05-13T08:53:02.383Z,4272.00
2018-05-13T08:54:02.427Z,4292.00
2018-05-13T08:55:02.371Z,4548.00
2018-05-13T08:56:02.361Z,4040.00
2018-05-13T08:57:02.353Z,3948.00
2018-05-13T08:58:02.344Z,3220.00
2018-05-13T08:59:02.337Z,2972.00
2018-05-13T09:00:02.331Z,3592.00
2018-05-13T09:01:02.328Z,3768.00
2018-05-13T09:02:02.315Z,3952.00
2018-05-13T09:03:02.314Z,4332.00
2018-05-13T09:04:02.303Z,4176.00
2018-05-13T09:05:02.291Z,4104.00
2018-05-13T09:06:02.284Z,3708.00
2018-05-13T09:07:02.276Z,3388.00
2018-05-13T09:08:02.269Z,3216.00
2018-05-13T09:09:02.260Z,3008.00
2018-05-13T09:10:02.253Z,3320.00
2018-05-13T09:11:02.246Z,3388.00
2018-05-13T09:12:02.243Z,3788.00
2018-05-13T09:13:02.234Z,3868.00
2018-05-13T09:14:02.228Z,3616.00
2018-05-13T09:15:02.216Z,3060.00
2018-05-13T09:16:02.212Z,3484.00
2018-05-13T09:17:02.202Z,3100.00
2018-05-13T09:18:02.197Z,3700.00
2018-05-13T09:19:02.186Z,4096.00
2018-05-13T09:20:02.179Z,4392.00
2018-05-13T09:21:02.171Z,3532.00
2018-05-13T09:22:02.163Z,4276.00
2018-05-13T09:23:02.156Z,6476.00
2018-05-13T09:24:02.149Z,7256.00
2018-05-13T09:25:02.141Z,7768.00
2018-05-13T09:26:02.133Z,7188.00
2018-05-13T09:27:02.126Z,8160.00
2018-05-13T09:28:02.119Z,7392.00
2018-05-13T09:29:02.114Z,6636.00
2018-05-13T09:30:02.104Z,5940.00
2018-05-13T09:31:02.096Z,6728.00
2018-05-13T09:32:02.091Z,6876.00
2018-05-13T09:33:02.143Z,5532.00
2018-05-13T09:34:02.074Z,7160.00
2018-05-13T09:35:02.067Z,8060.00
2018-05-13T09:36:02.059Z,6592.00
2018-05-13T09:37:02.052Z,6440.00
2018-05-13T09:38:02.053Z,7056.00
2018-05-13T09:39:02.039Z,7016.00
2018-05-13T09:40:02.030Z,8684.00
2018-05-13T09:41:02.026Z,8112.00
2018-05-13T09:42:02.015Z,5900.00
2018-05-13T09:43:02.015Z,5336.00
2018-05-13T09:44:02.003Z,4484.00
2018-05-13T09:45:01.994Z,4352.00
2018-05-13T09:46:01.986Z,3712.00
2018-05-13T09:47:01.980Z,3212.00
2018-05-13T09:48:01.972Z,3392.00
2018-05-13T09:49:01.968Z,3824.00
2018-05-13T09:50:01.958Z,4544.00
2018-05-13T09:51:01.950Z,4544.00
2018-05-13T09:52:01.943Z,3412.00
2018-05-13T09:53:01.936Z,3144.00
2018-05-13T09:54:01.929Z,3784.00
2018-05-13T09:55:01.925Z,3876.00
2018-05-13T09:56:01.914Z,3312.00
2018-05-13T09:57:01.907Z,2936.00
2018-05-13T09:58:01.899Z,2436.00
2018-05-13T09:59:01.893Z,2228.00
2018-05-13T10:00:01.886Z,2416.00
2018-05-13T10:01:01.877Z,3068.00
2018-05-13T10:02:01.875Z,3320.00
2018-05-13T10:03:01.863Z,3688.00
2018-05-13T10:04:01.920Z,3980.00
2018-05-13T10:05:01.848Z,4672.00
2018-05-13T10:06:01.842Z,4100.00
2018-05-13T10:07:01.834Z,2732.00
2018-05-13T10:08:01.827Z,3856.00
2018-05-13T10:09:01.820Z,4588.00
2018-05-13T10:10:01.813Z,3632.00
2018-05-13T10:11:01.805Z,3136.00
2018-05-13T10:12:01.798Z,2660.00
2018-05-13T10:13:01.790Z,2740.00
2018-05-13T10:14:01.782Z,2700.00
2018-05-13T10:15:01.776Z,2244.00
2018-05-13T10:16:01.768Z,1884.00
2018-05-13T10:17:01.762Z,1732.00
2018-05-13T10:18:01.753Z,1644.00
2018-05-13T10:19:01.746Z,2384.00
2018-05-13T10:20:01.789Z,2708.00
2018-05-13T10:21:01.731Z,2508.00
2018-05-13T10:22:01.724Z,2208.00
2018-05-13T10:23:01.718Z,1828.00
2018-05-13T10:24:01.710Z,2324.00
2018-05-13T10:25:01.702Z,2724.00
2018-05-13T10:26:01.695Z,2920.00
2018-05-13T10:27:01.687Z,2760.00
2018-05-13T10:28:01.680Z,2288.00
2018-05-13T10:29:01.672Z,2796.00
2018-05-13T10:30:01.665Z,3044.00
2018-05-13T10:31:01.658Z,3396.00
2018-05-13T10:32:01.650Z,3588.00
2018-05-13T10:33:01.642Z,3940.00
2018-05-13T10:34:01.636Z,4108.00
2018-05-13T10:35:01.633Z,4400.00
2018-05-13T10:36:01.620Z,4488.00
2018-05-13T10:37:01.612Z,4784.00
2018-05-13T10:38:01.606Z,5144.00
2018-05-13T10:39:01.598Z,5464.00
2018-05-13T10:40:01.590Z,5320.00
2018-05-13T10:41:01.594Z,4640.00
2018-05-13T10:42:01.575Z,4084.00
2018-05-13T10:43:01.567Z,3864.00
2018-05-13T10:44:01.560Z,3580.00
2018-05-13T10:45:01.602Z,3436.00
2018-05-13T10:46:01.545Z,4044.00
2018-05-13T10:47:01.538Z,4856.00
2018-05-13T10:48:01.530Z,4412.00
2018-05-13T10:49:01.522Z,5004.00
2018-05-13T10:50:01.515Z,6388.00
2018-05-13T10:51:01.507Z,6496.00
2018-05-13T10:52:01.500Z,6364.00
2018-05-13T10:53:01.492Z,6592.00
2018-05-13T10:54:01.485Z,6316.00
2018-05-13T10:55:01.477Z,6380.00
2018-05-13T10:56:01.471Z,7376.00
2018-05-13T10:57:01.463Z,7568.00
2018-05-13T10:58:01.456Z,6168.00
2018-05-13T10:59:01.468Z,5952.00
2018-05-13T11:00:01.443Z,5428.00
2018-05-13T11:01:01.439Z,5124.00
2018-05-13T11:02:01.433Z,5548.00
2018-05-13T11:03:01.420Z,5444.00
2018-05-13T11:04:01.414Z,5448.00
2018-05-13T11:05:01.407Z,5172.00
2018-05-13T11:06:01.399Z,5228.00
2018-05-13T11:07:01.397Z,4944.00
2018-05-13T11:08:01.386Z,5076.00
2018-05-13T11:09:01.380Z,5216.00
2018-05-13T11:10:01.375Z,5268.00
2018-05-13T11:11:01.367Z,5144.00
2018-05-13T11:12:01.359Z,5284.00
2018-05-13T11:13:01.351Z,4940.00
2018-05-13T11:14:01.345Z,4548.00
2018-05-13T11:15:01.338Z,4284.00
2018-05-13T11:16:01.332Z,3944.00
2018-05-13T11:17:01.324Z,3692.00
2018-05-13T11:18:01.317Z,3752.00
2018-05-13T11:19:01.319Z,3276.00
2018-05-13T11:20:01.307Z,3256.00
2018-05-13T11:21:01.295Z,3228.00
2018-05-13T11:22:01.294Z,3592.00
2018-05-13T11:23:01.282Z,3540.00
2018-05-13T11:24:01.275Z,3364.00
2018-05-13T11:25:01.267Z,3760.00
2018-05-13T11:26:01.261Z,3964.00
2018-05-13T11:27:01.254Z,3244.00
2018-05-13T11:28:01.247Z,3104.00
2018-05-13T11:29:01.239Z,3520.00
2018-05-13T11:30:01.234Z,3692.00
2018-05-13T11:31:01.227Z,3636.00
2018-05-13T11:32:01.220Z,3956.00
2018-05-13T11:33:01.212Z,3736.00
2018-05-13T11:34:01.209Z,3280.00
2018-05-13T11:35:01.198Z,3256.00
2018-05-13T11:36:01.190Z,3788.00
2018-05-13T11:37:01.183Z,3820.00
2018-05-13T11:38:01.176Z,3284.00
2018-05-13T11:39:01.169Z,3328.00
2018-05-13T11:40:01.163Z,3480.00
2018-05-13T11:41:01.155Z,3824.00
2018-05-13T11:42:01.148Z,4264.00
2018-05-13T11:43:01.141Z,4068.00
2018-05-13T11:44:01.134Z,3660.00
2018-05-13T11:45:01.126Z,3724.00
2018-05-13T11:46:01.120Z,3452.00
2018-05-13T11:47:01.112Z,3628.00
2018-05-13T11:48:01.106Z,3748.00
2018-05-13T11:49:01.098Z,4612.00
2018-05-13T11:50:01.091Z,5272.00
2018-05-13T11:51:01.084Z,5728.00
2018-05-13T11:52:01.077Z,6140.00
2018-05-13T11:53:01.072Z,5716.00
2018-05-13T11:54:01.063Z,5700.00
2018-05-13T11:55:01.056Z,5744.00
2018-05-13T11:56:01.049Z,5880.00
2018-05-13T11:57:01.040Z,5840.00
2018-05-13T11:58:01.034Z,5032.00
2018-05-13T11:59:01.027Z,4692.00
2018-05-13T12:00:01.020Z,4640.00
2018-05-13T12:01:01.012Z,4468.00
2018-05-13T12:02:01.005Z,4608.00
2018-05-13T12:03:01.001Z,5232.00
2018-05-13T12:04:00.991Z,5496.00
2018-05-13T12:05:00.983Z,5736.00
2018-05-13T12:06:00.976Z,5572.00
2018-05-13T12:07:00.970Z,5412.00
2018-05-13T12:08:00.963Z,5184.00
2018-05-13T12:09:00.955Z,5552.00
2018-05-13T12:10:00.947Z,5524.00
2018-05-13T12:11:00.941Z,6044.00
2018-05-13T12:12:00.934Z,6188.00
2018-05-13T12:13:00.926Z,5828.00
2018-05-13T12:14:00.919Z,6456.00
2018-05-13T12:15:00.953Z,6068.00
2018-05-13T12:16:00.910Z,5528.00
2018-05-13T12:17:00.898Z,5100.00
2018-05-13T12:18:00.892Z,5300.00
2018-05-13T12:19:00.885Z,4640.00
2018-05-13T12:20:00.877Z,4924.00
2018-05-13T12:21:00.950Z,5820.00
2018-05-13T12:22:00.871Z,6152.00
2018-05-13T12:23:00.856Z,6020.00
2018-05-13T12:24:00.850Z,6264.00
2018-05-13T12:25:00.842Z,7716.00
2018-05-13T12:26:00.836Z,8796.00
2018-05-13T12:27:00.829Z,9964.00
2018-05-13T12:28:00.823Z,10336.00
2018-05-13T12:29:00.836Z,11012.00